createdAt,value
2022-12-26T00:00:49.248Z,10.82
2022-12-26T00:03:16.835Z,10.80
2022-12-26T00:05:44.839Z,10.79
2022-12-26T00:08:12.321Z,10.68
2022-12-26T00:10:39.814Z,10.66
2022-12-26T00:13:40.195Z,10.49
2022-12-26T00:15:55.235Z,10.46
2022-12-26T00:18:22.713Z,10.65
2022-12-26T00:20:50.524Z,10.53
2022-12-26T00:23:18.433Z,10.30
2022-12-26T00:25:46.271Z,10.42
2022-12-26T00:28:14.529Z,10.47
2022-12-26T00:30:42.442Z,10.45
2022-12-26T00:33:09.826Z,10.47
2022-12-26T00:35:37.137Z,10.31
2022-12-26T00:38:04.882Z,10.32
2022-12-26T00:40:32.689Z,10.41
2022-12-26T00:43:00.137Z,10.27
2022-12-26T00:45:27.437Z,10.36
2022-12-26T00:47:55.850Z,10.42
2022-12-26T00:50:23.598Z,10.43
2022-12-26T00:52:51.746Z,10.51
2022-12-26T00:55:19.348Z,10.19
2022-12-26T00:57:47.313Z,10.15
2022-12-26T01:00:15.507Z,10.34
2022-12-26T01:02:42.953Z,10.26
2022-12-26T01:05:11.442Z,10.24
2022-12-26T01:08:19.947Z,10.08
2022-12-26T01:10:27.545Z,10.29
2022-12-26T01:12:55.108Z,10.36
2022-12-26T01:15:22.566Z,10.17
2022-12-26T01:17:50.752Z,10.15
2022-12-26T01:20:18.337Z,10.10
2022-12-26T01:22:45.626Z,10.18
2022-12-26T01:25:12.933Z,10.29
2022-12-26T01:27:40.531Z,10.36
2022-12-26T01:30:08.249Z,10.28
2022-12-26T01:32:35.718Z,10.07
2022-12-26T01:35:03.471Z,10.27
2022-12-26T01:37:31.392Z,10.46
2022-12-26T01:39:58.672Z,10.36
2022-12-26T01:42:27.065Z,10.17
2022-12-26T01:45:03.731Z,10.21
2022-12-26T01:47:35.012Z,10.31
2022-12-26T01:50:02.809Z,10.37
2022-12-26T01:52:37.457Z,10.44
2022-12-26T01:55:08.743Z,10.60
2022-12-26T01:57:40.057Z,10.54
2022-12-26T02:00:08.570Z,10.22
2022-12-26T02:03:02.036Z,10.33
2022-12-26T02:05:36.352Z,10.31
2022-12-26T02:08:14.886Z,10.49
2022-12-26T02:11:02.477Z,10.46
2022-12-26T02:13:30.782Z,10.42
2022-12-26T02:15:58.996Z,10.39
2022-12-26T02:18:26.704Z,10.37
2022-12-26T02:20:53.976Z,10.42
2022-12-26T02:23:21.321Z,10.49
2022-12-26T02:25:54.855Z,10.56
2022-12-26T02:28:22.674Z,10.49
2022-12-26T02:30:53.180Z,10.59
2022-12-26T02:33:20.843Z,10.63
2022-12-26T02:35:48.187Z,10.48
2022-12-26T02:38:18.612Z,10.40
2022-12-26T02:40:58.303Z,10.39
2022-12-26T02:43:34.854Z,10.52
2022-12-26T02:46:30.820Z,10.48
2022-12-26T02:49:04.002Z,10.52
2022-12-26T02:51:50.799Z,10.48
2022-12-26T02:54:53.397Z,10.37
2022-12-26T02:57:42.180Z,10.20
2022-12-26T03:00:35.775Z,10.19
2022-12-26T03:03:28.134Z,10.16
2022-12-26T03:06:20.191Z,10.13
2022-12-26T03:09:18.083Z,10.21
2022-12-26T03:12:08.096Z,10.16
2022-12-26T03:14:48.597Z,9.93
2022-12-26T03:17:29.039Z,10.03
2022-12-26T03:20:04.786Z,10.16
2022-12-26T03:22:38.147Z,10.26
2022-12-26T03:25:26.290Z,10.35
2022-12-26T03:27:55.721Z,10.33
2022-12-26T03:30:41.762Z,10.08
2022-12-26T03:33:29.734Z,10.27
2022-12-26T03:35:58.239Z,10.20
2022-12-26T03:38:34.870Z,9.91
2022-12-26T03:41:23.990Z,9.98
2022-12-26T03:44:32.608Z,9.94
2022-12-26T03:47:19.528Z,10.11
2022-12-26T03:50:08.456Z,10.17
2022-12-26T03:53:00.059Z,10.13
2022-12-26T03:56:01.920Z,10.13
2022-12-26T03:58:51.279Z,10.05
2022-12-26T04:01:39.731Z,10.04
2022-12-26T04:04:27.392Z,10.18
2022-12-26T04:07:16.441Z,10.25
2022-12-26T04:10:05.517Z,10.28
2022-12-26T04:12:53.387Z,10.00
2022-12-26T04:15:52.810Z,9.91
2022-12-26T04:18:41.746Z,10.08
2022-12-26T04:21:39.920Z,10.15
2022-12-26T04:24:32.432Z,10.16
2022-12-26T04:27:20.381Z,10.22
2022-12-26T04:30:06.726Z,10.28
2022-12-26T04:33:04.484Z,10.27
2022-12-26T04:35:51.061Z,10.19
2022-12-26T04:38:41.693Z,9.96
2022-12-26T04:41:29.915Z,9.96
2022-12-26T04:44:08.915Z,9.79
2022-12-26T04:46:38.326Z,10.03
2022-12-26T04:49:25.479Z,9.97
2022-12-26T04:51:55.243Z,9.94
2022-12-26T04:54:23.494Z,10.03
2022-12-26T04:56:50.833Z,10.07
2022-12-26T04:59:18.551Z,9.85
2022-12-26T05:02:05.483Z,9.91
2022-12-26T05:04:51.909Z,10.02
2022-12-26T05:07:44.039Z,10.02
2022-12-26T05:10:15.716Z,9.90
2022-12-26T05:12:43.189Z,9.98
2022-12-26T05:15:10.910Z,10.09
2022-12-26T05:17:56.708Z,10.15
2022-12-26T05:20:42.950Z,9.89
2022-12-26T05:23:48.924Z,9.90
2022-12-26T05:26:39.213Z,9.82
2022-12-26T05:29:06.633Z,9.85
2022-12-26T05:31:36.543Z,9.73
2022-12-26T05:34:08.001Z,9.60
2022-12-26T05:36:40.380Z,9.61
2022-12-26T05:39:08.783Z,9.66
2022-12-26T05:41:36.959Z,9.67
2022-12-26T05:44:05.051Z,9.64
2022-12-26T05:46:32.488Z,9.74
2022-12-26T05:49:00.935Z,9.82
2022-12-26T05:51:28.750Z,9.89
2022-12-26T05:53:56.172Z,9.81
2022-12-26T05:56:24.258Z,9.87
2022-12-26T05:59:00.015Z,9.96
2022-12-26T06:01:28.228Z,10.01
2022-12-26T06:03:56.857Z,9.88
2022-12-26T06:06:25.971Z,9.92
2022-12-26T06:08:55.416Z,9.96
2022-12-26T06:11:23.133Z,10.05
2022-12-26T06:13:50.985Z,9.99
2022-12-26T06:16:19.346Z,9.94
2022-12-26T06:18:48.396Z,9.90
2022-12-26T06:21:18.078Z,9.91
2022-12-26T06:23:46.928Z,9.98
2022-12-26T06:26:14.882Z,10.11
2022-12-26T06:28:43.338Z,10.10
2022-12-26T06:31:18.288Z,9.95
2022-12-26T06:33:45.803Z,9.98
2022-12-26T06:36:14.812Z,9.96
2022-12-26T06:38:43.069Z,9.96
2022-12-26T06:41:11.913Z,9.98
2022-12-26T06:43:40.007Z,10.02
2022-12-26T06:46:08.104Z,10.06
2022-12-26T06:48:42.019Z,9.74
2022-12-26T06:51:12.728Z,9.94
2022-12-26T06:53:40.858Z,10.00
2022-12-26T06:56:12.980Z,10.05
2022-12-26T06:58:40.628Z,9.89
2022-12-26T07:01:09.564Z,9.97
2022-12-26T07:03:37.024Z,9.76
2022-12-26T07:06:05.902Z,9.87
2022-12-26T07:08:34.006Z,9.92
2022-12-26T07:11:01.346Z,9.89
2022-12-26T07:13:29.388Z,9.85
2022-12-26T07:16:00.023Z,9.86
2022-12-26T07:18:28.415Z,9.84
2022-12-26T07:20:55.760Z,9.95
2022-12-26T07:23:23.449Z,10.00
2022-12-26T07:25:51.303Z,10.07
2022-12-26T07:28:19.117Z,9.97
2022-12-26T07:30:48.247Z,10.02
2022-12-26T07:33:15.698Z,10.02
2022-12-26T07:35:43.259Z,9.94
2022-12-26T07:38:11.461Z,9.92
2022-12-26T07:40:39.066Z,9.73
2022-12-26T07:43:06.480Z,9.88
2022-12-26T07:45:35.015Z,9.61
2022-12-26T07:48:04.899Z,9.82
2022-12-26T07:50:32.640Z,9.94
2022-12-26T07:53:00.891Z,9.79
2022-12-26T07:55:28.259Z,9.88
2022-12-26T07:57:55.791Z,10.01
2022-12-26T08:00:23.174Z,10.06
2022-12-26T08:02:51.129Z,10.05
2022-12-26T08:05:21.001Z,10.18
2022-12-26T08:07:48.660Z,10.16
2022-12-26T08:10:17.739Z,9.99
2022-12-26T08:12:45.049Z,10.14
2022-12-26T08:15:13.866Z,10.08
2022-12-26T08:17:41.100Z,10.08
2022-12-26T08:20:08.664Z,10.09
2022-12-26T08:22:36.218Z,10.03
2022-12-26T08:25:04.135Z,10.13
2022-12-26T08:27:31.401Z,10.08
2022-12-26T08:29:58.780Z,10.39
2022-12-26T08:32:26.734Z,10.84
2022-12-26T08:34:54.091Z,10.50
2022-12-26T08:37:22.054Z,10.48
2022-12-26T08:39:53.803Z,10.46
2022-12-26T08:42:21.918Z,10.36
2022-12-26T08:44:49.554Z,10.10
2022-12-26T08:47:17.931Z,10.21
2022-12-26T08:49:45.249Z,10.00
2022-12-26T08:52:13.039Z,10.00
2022-12-26T08:54:40.980Z,10.15
2022-12-26T08:57:09.689Z,10.14
2022-12-26T08:59:37.025Z,10.15
2022-12-26T09:02:04.477Z,10.26
2022-12-26T09:04:32.023Z,10.28
2022-12-26T09:06:59.433Z,10.04
2022-12-26T09:09:27.906Z,10.27
2022-12-26T09:11:55.601Z,10.51
2022-12-26T09:14:23.333Z,10.64
2022-12-26T09:16:52.386Z,10.72
2022-12-26T09:19:20.515Z,10.68
2022-12-26T09:21:48.645Z,10.67
2022-12-26T09:24:17.561Z,10.76
2022-12-26T09:26:45.260Z,10.88
2022-12-26T09:29:13.049Z,10.91
2022-12-26T09:31:40.505Z,10.91
2022-12-26T09:34:08.443Z,10.80
2022-12-26T09:36:38.362Z,10.82
2022-12-26T09:39:06.155Z,10.88
2022-12-26T09:41:39.511Z,10.81
2022-12-26T09:44:36.143Z,11.11
2022-12-26T09:47:03.916Z,11.12
2022-12-26T09:49:33.283Z,11.30
2022-12-26T09:52:02.142Z,11.29
2022-12-26T09:54:59.267Z,11.30
2022-12-26T09:57:31.665Z,11.14
2022-12-26T10:00:01.487Z,10.88
2022-12-26T10:02:29.136Z,11.15
2022-12-26T10:04:56.953Z,11.10
2022-12-26T10:07:31.444Z,10.97
2022-12-26T10:10:08.519Z,11.14
2022-12-26T10:12:38.512Z,11.34
2022-12-26T10:15:26.130Z,11.43
2022-12-26T10:18:09.186Z,11.36
2022-12-26T10:20:59.503Z,11.42
2022-12-26T10:23:36.136Z,11.61
2022-12-26T10:26:07.035Z,11.67
2022-12-26T10:28:53.011Z,11.79
2022-12-26T10:31:27.210Z,12.10
2022-12-26T10:33:58.631Z,12.24
2022-12-26T10:36:29.615Z,12.21
2022-12-26T10:38:59.198Z,11.95
2022-12-26T10:41:31.380Z,11.98
2022-12-26T10:43:59.381Z,12.17
2022-12-26T10:46:54.732Z,12.28
2022-12-26T10:49:24.046Z,12.31
2022-12-26T10:51:52.875Z,12.32
2022-12-26T10:54:21.201Z,12.58
2022-12-26T10:56:49.620Z,12.50
2022-12-26T10:59:20.735Z,12.24
2022-12-26T11:01:48.803Z,12.47
2022-12-26T11:04:18.832Z,12.65
2022-12-26T11:06:53.739Z,12.48
2022-12-26T11:09:25.424Z,12.65
2022-12-26T11:11:54.559Z,12.40
2022-12-26T11:14:42.461Z,12.53
2022-12-26T11:17:24.025Z,12.62
2022-12-26T11:20:08.623Z,12.40
2022-12-26T11:22:36.653Z,12.31
2022-12-26T11:25:08.648Z,12.50
2022-12-26T11:27:40.124Z,12.45
2022-12-26T11:30:16.369Z,12.21
2022-12-26T11:32:46.204Z,12.32
2022-12-26T11:35:18.363Z,12.26
2022-12-26T11:37:46.694Z,12.49
2022-12-26T11:40:23.404Z,12.49
2022-12-26T11:42:53.424Z,12.56
2022-12-26T11:45:22.944Z,12.42
2022-12-26T11:47:50.595Z,12.41
2022-12-26T11:50:21.729Z,12.31
2022-12-26T11:52:58.223Z,12.22
2022-12-26T11:55:29.176Z,11.92
2022-12-26T11:58:08.821Z,12.31
2022-12-26T12:00:37.255Z,12.37
2022-12-26T12:03:10.658Z,12.37
2022-12-26T12:05:49.074Z,12.36
2022-12-26T12:08:25.907Z,12.30
2022-12-26T12:10:53.318Z,12.32
2022-12-26T12:13:32.677Z,12.46
2022-12-26T12:16:00.239Z,12.51
2022-12-26T12:18:31.199Z,12.39
2022-12-26T12:21:08.519Z,12.41
2022-12-26T12:23:54.328Z,12.34
2022-12-26T12:26:40.634Z,12.00
2022-12-26T12:29:15.238Z,11.48
2022-12-26T12:31:52.283Z,11.59
2022-12-26T12:34:32.532Z,11.58
2022-12-26T12:37:07.341Z,11.27
2022-12-26T12:39:53.709Z,11.24
2022-12-26T12:42:24.601Z,11.37
2022-12-26T12:44:58.012Z,11.46
2022-12-26T12:47:31.498Z,11.29
2022-12-26T12:50:03.402Z,11.32
2022-12-26T12:52:31.626Z,11.18
2022-12-26T12:55:20.105Z,11.11
2022-12-26T12:57:54.515Z,11.35
2022-12-26T13:00:34.216Z,11.24
2022-12-26T13:03:04.410Z,11.01
2022-12-26T13:05:52.893Z,11.33
2022-12-26T13:08:25.458Z,11.43
2022-12-26T13:10:56.455Z,11.57
2022-12-26T13:13:35.357Z,11.80
2022-12-26T13:16:14.765Z,11.86
2022-12-26T13:18:50.433Z,11.87
2022-12-26T13:21:18.835Z,11.87
2022-12-26T13:24:11.727Z,11.96
2022-12-26T13:26:41.780Z,11.63
2022-12-26T13:29:27.995Z,11.69
2022-12-26T13:31:55.878Z,11.73
2022-12-26T13:34:24.504Z,11.74
2022-12-26T13:36:57.732Z,11.46
2022-12-26T13:39:33.186Z,11.68
2022-12-26T13:42:40.835Z,11.65
2022-12-26T13:45:27.210Z,11.81
2022-12-26T13:47:54.511Z,11.46
2022-12-26T13:50:40.751Z,11.20
2022-12-26T13:53:26.979Z,11.57
2022-12-26T13:56:06.777Z,11.67
2022-12-26T13:58:34.641Z,11.41
2022-12-26T14:01:21.371Z,11.33
2022-12-26T14:03:49.400Z,11.71
2022-12-26T14:06:43.445Z,11.94
2022-12-26T14:09:22.829Z,12.00
2022-12-26T14:11:51.044Z,11.95
2022-12-26T14:14:24.537Z,11.96
2022-12-26T14:16:54.679Z,12.06
2022-12-26T14:19:37.802Z,11.92
2022-12-26T14:22:25.349Z,11.83
2022-12-26T14:24:52.784Z,11.54
2022-12-26T14:27:20.455Z,11.70
2022-12-26T14:29:51.004Z,11.54
2022-12-26T14:32:35.191Z,11.57
2022-12-26T14:35:08.723Z,11.50
2022-12-26T14:37:35.976Z,11.58
2022-12-26T14:40:22.165Z,11.50
2022-12-26T14:43:11.443Z,11.18
2022-12-26T14:45:41.599Z,11.21
2022-12-26T14:48:15.800Z,11.36
2022-12-26T14:50:43.450Z,11.44
2022-12-26T14:53:20.822Z,11.59
2022-12-26T14:55:57.553Z,11.36
2022-12-26T14:58:28.382Z,11.57
2022-12-26T15:00:56.284Z,11.59
2022-12-26T15:03:44.746Z,11.57
2022-12-26T15:06:18.367Z,11.51
2022-12-26T15:09:04.296Z,11.66
2022-12-26T15:11:38.542Z,11.49
2022-12-26T15:14:17.926Z,11.52
2022-12-26T15:17:03.877Z,11.30
2022-12-26T15:19:34.275Z,11.33
2022-12-26T15:22:05.251Z,11.06
2022-12-26T15:25:16.437Z,10.92
2022-12-26T15:27:41.559Z,10.85
2022-12-26T15:30:13.354Z,10.88
2022-12-26T15:32:46.764Z,11.05
2022-12-26T15:35:14.513Z,11.07
2022-12-26T15:38:00.940Z,10.97
2022-12-26T15:40:36.141Z,10.88
2022-12-26T15:43:25.783Z,10.90
2022-12-26T15:45:57.803Z,10.77
2022-12-26T15:48:43.793Z,10.94
2022-12-26T15:51:14.417Z,10.99
2022-12-26T15:53:47.710Z,10.91
2022-12-26T15:56:33.600Z,10.90
2022-12-26T15:59:09.960Z,11.02
2022-12-26T16:01:42.477Z,11.04
2022-12-26T16:04:33.597Z,11.04
2022-12-26T16:07:20.235Z,11.00
2022-12-26T16:09:53.119Z,10.92
2022-12-26T16:12:21.034Z,10.79
2022-12-26T16:14:48.820Z,11.00
2022-12-26T16:17:16.120Z,11.06
2022-12-26T16:19:45.110Z,10.96
2022-12-26T16:22:34.891Z,11.08
2022-12-26T16:25:03.046Z,11.11
2022-12-26T16:27:31.014Z,11.04
2022-12-26T16:30:02.821Z,10.98
2022-12-26T16:32:36.827Z,11.06
2022-12-26T16:35:05.202Z,11.01
2022-12-26T16:37:33.103Z,10.94
2022-12-26T16:40:12.993Z,10.91
2022-12-26T16:42:42.593Z,10.98
2022-12-26T16:45:16.030Z,10.99
2022-12-26T16:47:43.747Z,11.02
2022-12-26T16:50:19.392Z,10.94
2022-12-26T16:52:47.562Z,10.94
2022-12-26T16:55:25.063Z,10.89
2022-12-26T16:57:53.754Z,10.87
2022-12-26T17:00:22.764Z,10.95
2022-12-26T17:02:52.407Z,10.95
2022-12-26T17:05:26.347Z,10.88
2022-12-26T17:07:55.295Z,10.89
2022-12-26T17:10:27.559Z,11.02
2022-12-26T17:12:57.722Z,11.12
2022-12-26T17:15:28.497Z,11.00
2022-12-26T17:17:56.725Z,10.99
2022-12-26T17:20:24.604Z,10.92
2022-12-26T17:22:56.224Z,10.85
2022-12-26T17:25:27.056Z,10.84
2022-12-26T17:28:15.009Z,10.88
2022-12-26T17:30:47.047Z,10.90
2022-12-26T17:33:17.625Z,10.81
2022-12-26T17:36:52.520Z,10.94
2022-12-26T17:38:44.841Z,11.02
2022-12-26T17:41:15.174Z,10.93
2022-12-26T17:43:43.157Z,10.78
2022-12-26T17:46:14.923Z,10.85
2022-12-26T17:48:43.483Z,10.75
2022-12-26T17:51:17.613Z,10.87
2022-12-26T17:53:50.098Z,10.92
2022-12-26T17:56:23.421Z,10.91
2022-12-26T17:58:51.614Z,10.80
2022-12-26T18:01:21.831Z,10.80
2022-12-26T18:03:50.153Z,10.93
2022-12-26T18:06:18.498Z,10.87
2022-12-26T18:08:46.011Z,10.89
2022-12-26T18:11:14.470Z,10.80
2022-12-26T18:13:42.003Z,10.79
2022-12-26T18:16:14.607Z,10.80
2022-12-26T18:18:43.666Z,10.86
2022-12-26T18:21:12.292Z,10.88
2022-12-26T18:23:39.783Z,10.90
2022-12-26T18:26:09.088Z,11.00
2022-12-26T18:28:36.935Z,10.85
2022-12-26T18:31:04.459Z,10.97
2022-12-26T18:33:32.499Z,11.05
2022-12-26T18:36:05.832Z,11.05
2022-12-26T18:38:35.557Z,10.95
2022-12-26T18:41:03.002Z,10.95
2022-12-26T18:43:30.394Z,10.83
2022-12-26T18:45:58.504Z,10.94
2022-12-26T18:48:26.537Z,10.94
2022-12-26T18:50:54.563Z,10.88
2022-12-26T18:53:23.105Z,10.98
2022-12-26T18:55:50.577Z,10.99
2022-12-26T18:58:18.468Z,10.91
2022-12-26T19:00:45.936Z,10.94
2022-12-26T19:03:13.584Z,10.95
2022-12-26T19:05:40.938Z,10.93
2022-12-26T19:08:08.480Z,10.97
2022-12-26T19:10:35.920Z,10.92
2022-12-26T19:13:06.869Z,10.70
2022-12-26T19:15:35.417Z,10.68
2022-12-26T19:18:03.815Z,10.48
2022-12-26T19:20:31.699Z,10.37
2022-12-26T19:22:59.535Z,10.52
2022-12-26T19:25:27.547Z,10.71
2022-12-26T19:27:55.740Z,10.78
2022-12-26T19:30:23.424Z,10.84
2022-12-26T19:32:51.848Z,10.84
2022-12-26T19:35:19.297Z,10.54
2022-12-26T19:37:46.892Z,10.56
2022-12-26T19:40:22.943Z,10.45
2022-12-26T19:42:52.776Z,10.58
2022-12-26T19:45:22.739Z,10.73
2022-12-26T19:47:50.634Z,10.75
2022-12-26T19:50:18.624Z,10.81
2022-12-26T19:52:45.953Z,10.75
2022-12-26T19:55:13.288Z,10.71
2022-12-26T19:57:40.766Z,10.68
2022-12-26T20:00:09.447Z,10.86
2022-12-26T20:02:40.065Z,10.80
2022-12-26T20:05:08.104Z,10.72
2022-12-26T20:07:36.017Z,10.73
2022-12-26T20:10:04.542Z,10.69
2022-12-26T20:12:32.566Z,10.66
2022-12-26T20:14:59.957Z,10.54
2022-12-26T20:17:27.383Z,10.51
2022-12-26T20:19:54.818Z,10.63
2022-12-26T20:22:22.261Z,10.63
2022-12-26T20:24:50.276Z,10.48
2022-12-26T20:27:17.891Z,10.37
2022-12-26T20:29:45.770Z,10.55
2022-12-26T20:32:13.153Z,10.67
2022-12-26T20:34:40.571Z,10.65
2022-12-26T20:37:08.510Z,10.64
2022-12-26T20:39:35.908Z,10.68
2022-12-26T20:42:03.909Z,10.58
2022-12-26T20:44:31.305Z,10.61
2022-12-26T20:46:59.271Z,10.67
2022-12-26T20:49:27.294Z,10.61
2022-12-26T20:51:54.764Z,10.54
2022-12-26T20:54:22.730Z,10.54
2022-12-26T20:56:50.448Z,10.60
2022-12-26T20:59:18.445Z,10.50
2022-12-26T21:01:46.739Z,10.27
2022-12-26T21:04:18.908Z,10.42
2022-12-26T21:06:47.565Z,10.50
2022-12-26T21:09:15.278Z,10.39
2022-12-26T21:11:45.419Z,10.54
2022-12-26T21:14:18.070Z,10.67
2022-12-26T21:16:50.751Z,10.62
2022-12-26T21:19:18.788Z,10.78
2022-12-26T21:21:47.894Z,10.78
2022-12-26T21:24:33.657Z,10.72
2022-12-26T21:27:01.565Z,10.63
2022-12-26T21:29:30.298Z,10.60
2022-12-26T21:31:58.521Z,10.44
2022-12-26T21:34:27.851Z,10.50
2022-12-26T21:37:15.010Z,10.53
2022-12-26T21:39:43.161Z,10.46
2022-12-26T21:42:11.237Z,10.49
2022-12-26T21:44:38.860Z,10.40
2022-12-26T21:47:10.402Z,10.35
2022-12-26T21:49:37.881Z,10.19
2022-12-26T21:52:06.262Z,10.30
2022-12-26T21:54:54.024Z,10.32
2022-12-26T21:57:22.343Z,10.32
2022-12-26T21:59:56.413Z,10.32
2022-12-26T22:02:44.346Z,10.35
2022-12-26T22:05:12.594Z,10.29
2022-12-26T22:07:40.198Z,10.18
2022-12-26T22:10:07.969Z,10.01
2022-12-26T22:12:54.419Z,9.96
2022-12-26T22:15:42.499Z,10.04
2022-12-26T22:18:10.174Z,9.91
2022-12-26T22:20:37.622Z,9.93
2022-12-26T22:23:05.061Z,9.88
2022-12-26T22:25:32.824Z,9.82
2022-12-26T22:28:00.722Z,9.83
2022-12-26T22:30:28.566Z,9.91
2022-12-26T22:32:55.981Z,9.92
2022-12-26T22:35:24.256Z,10.03
2022-12-26T22:37:51.590Z,10.09
2022-12-26T22:40:19.499Z,9.96
2022-12-26T22:42:47.413Z,9.82
2022-12-26T22:45:14.989Z,9.82
2022-12-26T22:47:42.274Z,9.91
2022-12-26T22:50:13.660Z,9.88
2022-12-26T22:52:40.972Z,9.96
2022-12-26T22:55:08.955Z,9.98
2022-12-26T22:57:36.451Z,10.02
2022-12-26T23:00:10.553Z,10.06
2022-12-26T23:02:38.951Z,10.15
2022-12-26T23:05:06.832Z,10.03
2022-12-26T23:07:34.542Z,9.93
2022-12-26T23:10:02.438Z,9.76
2022-12-26T23:12:45.303Z,9.80
2022-12-26T23:15:14.660Z,9.83
2022-12-26T23:18:04.160Z,10.01
2022-12-26T23:20:51.670Z,9.97
2022-12-26T23:23:19.164Z,10.14
2022-12-26T23:25:46.708Z,10.18
2022-12-26T23:28:33.203Z,9.96
2022-12-26T23:31:03.373Z,9.87
2022-12-26T23:33:32.249Z,10.03
2022-12-26T23:36:00.050Z,10.24
2022-12-26T23:38:30.356Z,10.47
2022-12-26T23:40:59.366Z,10.45
2022-12-26T23:43:26.824Z,10.48
2022-12-26T23:45:54.295Z,10.25
2022-12-26T23:48:21.824Z,10.33
2022-12-26T23:50:49.679Z,10.25
2022-12-26T23:53:18.388Z,10.36
2022-12-26T23:55:46.180Z,10.44
2022-12-26T23:58:13.575Z,10.37
